Time;durP1;ratioP1;P1;durP2;ratioP2;P2;SDS_P1;SDS_P2;PMS_P1;PMS_P2;Temp;Humidity;BMP_temperature;BMP_pressure;BME280_temperature;BME280_humidity;BME280_pressure;Samples;Min_cycle;Max_cycle;Signal;HPM_P1;HPM_P2
2023/07/29 00:00:43;;;;;;;3.97;2.80;;;18.00;99.90;;;;;;5064505;28;20246;-82
2023/07/29 00:03:10;;;;;;;3.40;3.10;;;18.00;99.90;;;;;;5067177;28;20323;-82
2023/07/29 00:05:37;;;;;;;3.17;2.87;;;17.90;99.90;;;;;;5064911;28;20307;-82
2023/07/29 00:08:05;;;;;;;3.27;2.90;;;17.90;99.90;;;;;;5064723;28;20307;-86
2023/07/29 00:10:37;;;;;;;2.97;2.40;;;17.80;99.90;;;;;;5065178;28;20227;-83
2023/07/29 00:13:04;;;;;;;4.05;2.65;;;17.70;99.90;;;;;;5066123;28;20230;-83
2023/07/29 00:15:31;;;;;;;3.07;2.70;;;17.70;99.90;;;;;;5063634;28;20215;-82
2023/07/29 00:17:58;;;;;;;3.87;3.47;;;17.60;99.90;;;;;;5062668;28;20215;-83
2023/07/29 00:20:24;;;;;;;3.37;3.07;;;17.50;99.90;;;;;;5064586;28;20226;-82
2023/07/29 00:22:53;;;;;;;3.63;3.30;;;17.40;99.90;;;;;;5060412;28;20235;-81
2023/07/29 00:25:20;;;;;;;4.33;3.53;;;17.40;99.90;;;;;;5063577;28;20266;-81
2023/07/29 00:27:48;;;;;;;4.57;3.33;;;17.30;99.90;;;;;;5061976;28;20236;-81
2023/07/29 00:30:15;;;;;;;3.63;3.33;;;17.20;99.90;;;;;;5062122;28;20234;-82
2023/07/29 00:32:43;;;;;;;4.60;3.67;;;17.10;99.90;;;;;;5067405;28;20250;-81
2023/07/29 00:35:10;;;;;;;4.33;3.70;;;17.10;99.90;;;;;;5067837;28;20249;-81
2023/07/29 00:37:38;;;;;;;3.93;3.53;;;17.00;99.90;;;;;;5066308;28;20326;-81
2023/07/29 00:40:17;;;;;;;4.07;3.07;;;17.00;99.90;;;;;;5064767;28;20317;-81
2023/07/29 00:42:44;;;;;;;4.43;3.43;;;16.90;99.90;;;;;;5068431;28;20311;-81
2023/07/29 00:45:13;;;;;;;4.87;4.20;;;16.90;99.90;;;;;;5066120;28;20306;-81
2023/07/29 00:47:40;;;;;;;4.90;4.33;;;16.80;99.90;;;;;;5062697;28;20286;-81
2023/07/29 00:50:10;;;;;;;5.20;4.67;;;16.80;99.90;;;;;;5061190;28;20250;-81
2023/07/29 00:52:36;;;;;;;5.13;4.63;;;16.70;99.90;;;;;;5065696;28;20272;-81
2023/07/29 00:55:02;;;;;;;5.83;4.50;;;16.70;99.90;;;;;;5061957;28;20223;-83
2023/07/29 00:57:31;;;;;;;4.83;3.80;;;16.70;99.90;;;;;;5065466;28;20235;-82
2023/07/29 00:59:58;;;;;;;5.47;4.63;;;16.60;99.90;;;;;;5061470;28;20233;-82
2023/07/29 01:02:27;;;;;;;5.13;3.97;;;16.60;99.90;;;;;;5065512;28;20257;-83
2023/07/29 01:04:55;;;;;;;4.77;3.70;;;16.60;99.90;;;;;;5058614;28;20222;-82
2023/07/29 01:07:27;;;;;;;4.73;4.20;;;16.50;99.90;;;;;;5058191;28;20235;-81
2023/07/29 01:09:58;;;;;;;4.83;4.30;;;16.50;99.90;;;;;;5058498;28;20238;-82
2023/07/29 01:12:33;;;;;;;5.43;4.20;;;16.50;99.90;;;;;;5062112;28;20233;-82
2023/07/29 01:15:06;;;;;;;4.47;4.07;;;16.40;99.90;;;;;;5062451;28;20303;-82
2023/07/29 01:17:40;;;;;;;4.40;3.80;;;16.50;99.90;;;;;;5064486;28;20244;-83
2023/07/29 01:20:10;;;;;;;6.77;4.73;;;16.40;99.90;;;;;;5060410;28;20221;-82
2023/07/29 01:22:39;;;;;;;5.10;4.57;;;16.40;99.90;;;;;;5064835;28;20226;-82
2023/07/29 01:25:08;;;;;;;5.60;3.90;;;16.50;99.90;;;;;;5059671;28;20223;-82
2023/07/29 01:27:35;;;;;;;5.90;4.57;;;16.50;99.90;;;;;;5065529;28;20233;-82
2023/07/29 01:30:04;;;;;;;6.40;4.50;;;16.50;99.90;;;;;;5063029;28;20775;-82
2023/07/29 01:32:36;;;;;;;4.67;4.27;;;16.50;99.90;;;;;;5066186;28;20222;-83
2023/07/29 01:35:09;;;;;;;6.83;4.50;;;16.50;99.90;;;;;;5061997;28;20234;-82
2023/07/29 01:37:38;;;;;;;5.43;4.93;;;16.50;99.90;;;;;;5063009;28;20700;-83
2023/07/29 01:40:09;;;;;;;5.83;5.07;;;16.60;99.90;;;;;;5058386;28;20253;-82
2023/07/29 01:42:36;;;;;;;5.67;4.80;;;16.70;99.90;;;;;;5055453;28;20309;-82
2023/07/29 01:45:03;;;;;;;7.17;5.03;;;16.70;99.90;;;;;;5059089;28;20304;-82
2023/07/29 01:47:30;;;;;;;5.43;4.33;;;16.70;99.90;;;;;;5057190;28;20226;-83
2023/07/29 01:49:57;;;;;;;5.40;4.90;;;16.80;99.90;;;;;;5058181;28;20293;-83
2023/07/29 01:52:24;;;;;;;6.70;4.67;;;16.80;99.90;;;;;;5064588;28;20329;-81
2023/07/29 01:54:51;;;;;;;6.20;5.20;;;16.90;99.90;;;;;;5061872;28;20313;-81
2023/07/29 01:57:19;;;;;;;5.57;5.07;;;16.90;99.90;;;;;;5060359;28;20586;-82
2023/07/29 01:59:46;;;;;;;5.90;5.30;;;17.00;99.90;;;;;;5060719;28;20219;-82
2023/07/29 02:02:13;;;;;;;5.70;5.10;;;17.00;99.90;;;;;;5059790;28;20226;-82
2023/07/29 02:04:39;;;;;;;4.70;4.30;;;17.00;99.90;;;;;;5061478;28;20338;-82
2023/07/29 02:07:06;;;;;;;10.23;5.60;;;17.10;99.90;;;;;;5060630;28;20283;-82
2023/07/29 02:09:33;;;;;;;7.50;6.17;;;17.10;99.90;;;;;;5061022;28;20285;-82
2023/07/29 02:12:00;;;;;;;6.97;5.80;;;17.10;99.90;;;;;;5056920;28;20250;-83
2023/07/29 02:14:28;;;;;;;7.87;5.90;;;17.20;99.90;;;;;;5061822;28;20254;-81
2023/07/29 02:16:54;;;;;;;15.97;8.00;;;17.20;99.90;;;;;;5061566;28;20235;-81
2023/07/29 02:19:21;;;;;;;16.47;7.47;;;17.20;99.90;;;;;;5060290;28;20238;-81
2023/07/29 02:21:48;;;;;;;9.00;6.83;;;17.20;99.90;;;;;;5063794;28;20834;-80
2023/07/29 02:24:15;;;;;;;8.73;7.10;;;17.20;99.90;;;;;;5060482;28;20649;-80
2023/07/29 02:26:42;;;;;;;8.60;7.03;;;17.20;99.90;;;;;;5062453;28;20231;-80
2023/07/29 02:29:09;;;;;;;11.47;7.37;;;17.20;99.90;;;;;;5059860;28;20590;-80
2023/07/29 02:31:38;;;;;;;10.17;7.73;;;17.10;99.90;;;;;;5060585;28;20247;-80
2023/07/29 02:34:05;;;;;;;7.67;6.57;;;17.10;99.90;;;;;;5057246;28;20229;-80
2023/07/29 02:36:31;;;;;;;12.77;8.10;;;17.10;99.90;;;;;;5056576;28;20758;-80
2023/07/29 02:38:59;;;;;;;12.27;7.50;;;17.10;99.90;;;;;;5056487;28;20219;-79
2023/07/29 02:41:25;;;;;;;10.77;7.73;;;17.00;99.90;;;;;;5054484;28;20226;-80
2023/07/29 02:43:52;;;;;;;8.17;7.33;;;17.00;99.90;;;;;;5053529;28;20617;-79
2023/07/29 02:46:19;;;;;;;8.97;7.40;;;17.00;99.90;;;;;;5052390;28;20234;-79
2023/07/29 02:48:47;;;;;;;10.33;7.57;;;17.00;99.90;;;;;;5053477;28;20880;-79
2023/07/29 02:51:14;;;;;;;8.67;7.50;;;17.00;99.90;;;;;;5049073;28;20219;-79
2023/07/29 02:53:41;;;;;;;9.63;7.97;;;17.00;99.90;;;;;;5054612;28;20221;-79
2023/07/29 02:56:09;;;;;;;11.83;7.67;;;17.00;99.90;;;;;;5052944;28;20231;-79
2023/07/29 02:58:36;;;;;;;10.63;7.97;;;17.00;99.90;;;;;;5052830;28;20274;-79
2023/07/29 03:01:04;;;;;;;10.77;8.67;;;16.90;99.90;;;;;;5051305;28;20301;-79
2023/07/29 03:03:32;;;;;;;11.63;8.40;;;16.90;99.90;;;;;;5051208;28;20223;-79
2023/07/29 03:06:03;;;;;;;8.70;7.80;;;16.90;99.90;;;;;;5052519;28;20237;-80
2023/07/29 03:08:30;;;;;;;10.60;8.70;;;16.90;99.90;;;;;;5056315;28;20223;-80
2023/07/29 03:10:57;;;;;;;12.17;8.83;;;16.90;99.90;;;;;;5058010;28;20242;-80
2023/07/29 03:13:25;;;;;;;13.50;9.57;;;16.90;99.90;;;;;;5060261;28;20237;-79
2023/07/29 03:15:52;;;;;;;15.30;9.17;;;16.90;99.90;;;;;;5075356;28;20223;-79
2023/07/29 03:18:19;;;;;;;10.67;9.47;;;16.90;99.90;;;;;;5057808;28;20257;-79
2023/07/29 03:20:46;;;;;;;13.63;10.40;;;16.90;99.90;;;;;;5060680;28;20222;-80
2023/07/29 03:23:14;;;;;;;12.67;9.87;;;16.90;99.90;;;;;;5058760;28;20220;-79
2023/07/29 03:25:40;;;;;;;12.13;9.77;;;16.90;99.90;;;;;;5058202;28;20237;-79
2023/07/29 03:28:07;;;;;;;14.17;9.87;;;16.90;99.90;;;;;;5059362;28;20231;-79
2023/07/29 03:30:34;;;;;;;11.90;9.70;;;16.90;99.90;;;;;;5060496;28;20281;-80
2023/07/29 03:33:01;;;;;;;11.37;10.07;;;16.80;99.90;;;;;;5060689;28;20211;-80
2023/07/29 03:35:27;;;;;;;11.87;10.50;;;16.80;99.90;;;;;;5054555;28;20226;-79
2023/07/29 03:37:54;;;;;;;11.20;10.00;;;16.80;99.90;;;;;;5055727;28;20330;-79
2023/07/29 03:40:22;;;;;;;16.97;11.40;;;16.80;99.90;;;;;;5059974;28;20218;-80
2023/07/29 03:42:49;;;;;;;14.10;11.20;;;16.70;99.90;;;;;;5052894;28;20222;-80
2023/07/29 03:45:16;;;;;;;15.30;12.63;;;16.70;99.90;;;;;;5056434;28;20227;-80
2023/07/29 03:47:43;;;;;;;13.33;11.93;;;16.70;99.90;;;;;;5055987;28;20225;-80
2023/07/29 03:50:10;;;;;;;14.47;12.13;;;16.70;99.90;;;;;;5057223;28;20222;-80
2023/07/29 03:52:37;;;;;;;16.00;12.17;;;16.70;99.90;;;;;;5057721;28;20234;-80
2023/07/29 03:55:04;;;;;;;14.87;12.60;;;16.70;99.90;;;;;;5053153;28;20226;-80
2023/07/29 03:57:32;;;;;;;14.53;12.50;;;16.70;99.90;;;;;;5061281;28;20238;-81
2023/07/29 03:59:59;;;;;;;15.37;13.00;;;16.70;99.90;;;;;;5063468;28;20244;-80
2023/07/29 04:02:26;;;;;;;16.60;12.53;;;16.70;99.90;;;;;;5063934;28;20226;-80
2023/07/29 04:04:53;;;;;;;16.33;12.60;;;16.70;99.90;;;;;;5061615;28;20279;-81
2023/07/29 04:07:19;;;;;;;15.10;12.93;;;16.70;99.90;;;;;;5064213;28;20217;-81
2023/07/29 04:09:46;;;;;;;18.07;13.37;;;16.70;99.90;;;;;;5067036;28;20276;-80
2023/07/29 04:12:13;;;;;;;15.63;13.07;;;16.70;99.90;;;;;;5063960;28;20652;-80
2023/07/29 04:14:42;;;;;;;16.20;13.87;;;16.70;99.90;;;;;;5066082;28;21067;-80
2023/07/29 04:17:09;;;;;;;18.00;14.10;;;16.70;99.90;;;;;;5061211;28;20811;-80
2023/07/29 04:19:35;;;;;;;19.67;14.57;;;16.80;99.90;;;;;;5054449;28;20224;-80
2023/07/29 04:22:02;;;;;;;15.90;14.20;;;16.80;99.90;;;;;;5065587;28;20281;-80
2023/07/29 04:24:29;;;;;;;14.93;13.33;;;16.90;99.90;;;;;;5076970;28;20279;-80
2023/07/29 04:26:56;;;;;;;14.77;13.10;;;16.90;99.90;;;;;;5057395;28;20227;-81
2023/07/29 04:29:23;;;;;;;18.17;14.93;;;17.00;99.90;;;;;;5063558;28;21218;-80
2023/07/29 04:31:52;;;;;;;19.20;15.27;;;17.00;99.90;;;;;;5077917;28;21248;-80
2023/07/29 04:34:19;;;;;;;19.20;16.33;;;17.10;99.90;;;;;;5063120;28;20807;-80
2023/07/29 04:36:46;;;;;;;21.17;17.27;;;17.10;99.90;;;;;;5061937;28;20227;-81
2023/07/29 04:39:13;;;;;;;25.53;18.27;;;17.10;99.90;;;;;;5064796;28;20223;-81
2023/07/29 04:41:40;;;;;;;29.03;20.27;;;17.10;99.90;;;;;;5065652;28;20251;-81
2023/07/29 04:44:07;;;;;;;28.37;21.27;;;17.20;99.90;;;;;;5052721;28;20259;-81
2023/07/29 04:46:35;;;;;;;31.47;21.97;;;17.20;99.90;;;;;;5060473;28;20572;-81
2023/07/29 04:49:03;;;;;;;33.40;23.27;;;17.20;99.90;;;;;;5050095;28;20236;-78
2023/07/29 04:51:31;;;;;;;26.30;21.77;;;17.20;99.90;;;;;;5050466;28;20341;-79
2023/07/29 04:53:58;;;;;;;27.67;22.50;;;17.30;99.90;;;;;;5056250;28;20311;-79
2023/07/29 04:56:25;;;;;;;27.43;21.30;;;17.30;99.90;;;;;;5066922;28;20853;-78
2023/07/29 04:58:52;;;;;;;31.50;22.43;;;17.30;99.90;;;;;;5060893;28;20247;-80
2023/07/29 05:01:19;;;;;;;28.00;22.10;;;17.30;99.90;;;;;;5063883;28;20232;-79
2023/07/29 05:03:46;;;;;;;31.17;23.90;;;17.40;99.90;;;;;;5065901;28;20641;-79
2023/07/29 05:06:15;;;;;;;32.23;25.17;;;17.40;99.90;;;;;;5055792;28;20761;-80
2023/07/29 05:08:42;;;;;;;31.80;25.57;;;17.40;99.90;;;;;;5047785;28;20212;-80
2023/07/29 05:11:09;;;;;;;28.90;24.13;;;17.40;99.90;;;;;;5055739;28;20228;-79
2023/07/29 05:13:36;;;;;;;33.63;26.23;;;17.40;99.90;;;;;;5065418;28;20217;-80
2023/07/29 05:16:02;;;;;;;31.90;24.83;;;17.50;99.90;;;;;;5060612;28;20603;-79
2023/07/29 05:18:30;;;;;;;30.47;24.80;;;17.50;99.90;;;;;;5057645;28;20712;-79
2023/07/29 05:20:56;;;;;;;30.47;24.53;;;17.60;99.90;;;;;;5051900;28;20307;-79
2023/07/29 05:23:25;;;;;;;36.20;28.03;;;17.60;99.90;;;;;;5065627;28;20241;-80
2023/07/29 05:25:52;;;;;;;34.97;27.73;;;17.60;99.90;;;;;;5060259;28;20276;-80
2023/07/29 05:28:18;;;;;;;36.33;28.80;;;17.70;99.90;;;;;;5053037;28;20224;-79
2023/07/29 05:30:45;;;;;;;35.57;28.83;;;17.70;99.90;;;;;;5057537;28;20227;-80
2023/07/29 05:33:12;;;;;;;37.67;29.57;;;17.80;99.90;;;;;;5067318;28;20738;-80
2023/07/29 05:35:40;;;;;;;35.97;28.80;;;17.80;99.90;;;;;;5064280;28;20230;-80
2023/07/29 05:38:08;;;;;;;38.70;29.90;;;17.90;99.90;;;;;;5058842;28;20232;-79
2023/07/29 05:40:37;;;;;;;38.30;29.20;;;17.90;99.90;;;;;;5063008;28;20230;-79
2023/07/29 05:43:04;;;;;;;37.87;30.40;;;17.90;99.90;;;;;;5052162;28;20334;-81
2023/07/29 05:45:31;;;;;;;39.13;31.30;;;18.00;99.90;;;;;;5055346;28;20251;-81
2023/07/29 05:47:58;;;;;;;38.23;29.83;;;18.10;99.90;;;;;;5049124;28;20625;-80
2023/07/29 05:50:25;;;;;;;35.90;28.77;;;18.10;99.90;;;;;;5066968;28;20254;-80
2023/07/29 05:52:53;;;;;;;32.08;26.35;;;18.20;99.90;;;;;;5051616;28;20311;-79
2023/07/29 05:55:20;;;;;;;32.95;27.00;;;18.20;99.90;;;;;;5055246;28;20232;-79
2023/07/29 05:57:49;;;;;;;33.60;27.85;;;18.30;99.90;;;;;;5047773;28;20235;-81
2023/07/29 06:00:17;;;;;;;34.13;28.40;;;18.40;99.90;;;;;;5049329;28;20227;-81
2023/07/29 06:02:45;;;;;;;35.30;29.65;;;18.50;99.90;;;;;;5056202;28;20273;-81
2023/07/29 06:05:16;;;;;;;32.90;29.35;;;18.60;99.90;;;;;;5061910;28;20220;-81
2023/07/29 06:07:44;;;;;;;34.83;29.52;;;18.70;99.90;;;;;;5069127;28;20315;-79
2023/07/29 06:10:13;;;;;;;29.00;25.80;;;18.80;99.90;;;;;;5072311;28;20271;-80
2023/07/29 06:12:40;;;;;;;28.70;25.67;;;18.90;99.90;;;;;;5060183;28;20224;-80
2023/07/29 06:15:09;;;;;;;30.03;25.57;;;19.00;99.90;;;;;;5071099;28;20469;-80
2023/07/29 06:17:35;;;;;;;27.00;24.13;;;19.00;99.90;;;;;;5068819;28;20232;-80
2023/07/29 06:20:03;;;;;;;28.10;24.00;;;19.00;99.90;;;;;;5056149;28;20251;-81
2023/07/29 06:22:30;;;;;;;26.45;23.60;;;18.90;99.90;;;;;;5061109;28;20250;-80
2023/07/29 06:24:56;;;;;;;27.63;24.23;;;18.90;99.90;;;;;;5075445;28;20305;-80
2023/07/29 06:27:24;;;;;;;28.17;24.73;;;18.90;99.90;;;;;;5056312;28;20220;-78
2023/07/29 06:29:51;;;;;;;29.45;25.25;;;18.90;99.90;;;;;;5061461;28;20254;-80
2023/07/29 06:32:19;;;;;;;29.17;25.27;;;18.90;99.90;;;;;;5057074;28;20224;-80
2023/07/29 06:34:45;;;;;;;31.10;26.93;;;18.90;99.90;;;;;;5064570;28;20231;-80
2023/07/29 06:37:12;;;;;;;30.60;26.60;;;18.90;99.90;;;;;;5061705;28;20230;-81
2023/07/29 06:39:39;;;;;;;30.20;25.27;;;19.00;99.90;;;;;;5061636;28;20223;-81
2023/07/29 06:42:06;;;;;;;29.23;26.13;;;19.00;99.90;;;;;;5057125;28;20262;-83
2023/07/29 06:44:33;;;;;;;27.55;24.48;;;19.10;99.90;;;;;;5051061;28;20249;-80
2023/07/29 06:47:00;;;;;;;28.77;25.48;;;19.10;99.90;;;;;;5061879;28;20232;-80
2023/07/29 06:49:28;;;;;;;27.00;24.10;;;19.10;99.90;;;;;;5064230;28;20234;-79
2023/07/29 06:51:55;;;;;;;26.33;23.45;;;19.20;99.90;;;;;;5065239;28;20233;-79
2023/07/29 06:54:25;;;;;;;25.55;22.75;;;19.30;99.90;;;;;;5054667;28;20282;-81
2023/07/29 06:56:52;;;;;;;24.48;21.88;;;19.40;99.90;;;;;;5064599;28;20912;-80
2023/07/29 06:59:18;;;;;;;23.50;20.83;;;19.40;99.90;;;;;;5069201;28;20306;-82
2023/07/29 07:01:45;;;;;;;27.52;23.35;;;19.50;99.90;;;;;;5066609;28;20223;-81
2023/07/29 07:04:12;;;;;;;24.23;19.98;;;19.60;99.90;;;;;;5069015;28;20237;-81
2023/07/29 07:06:40;;;;;;;20.88;18.60;;;19.70;99.90;;;;;;5057706;28;20283;-81
2023/07/29 07:09:06;;;;;;;20.42;18.25;;;19.80;99.90;;;;;;5048186;28;20327;-81
2023/07/29 07:11:33;;;;;;;20.02;17.77;;;20.00;99.90;;;;;;5062340;28;20306;-82
2023/07/29 07:14:00;;;;;;;22.80;18.40;;;20.10;99.90;;;;;;5071782;28;20239;-81
2023/07/29 07:16:29;;;;;;;19.85;17.75;;;20.20;99.90;;;;;;5074746;28;20249;-80
2023/07/29 07:18:56;;;;;;;20.65;17.98;;;20.30;99.90;;;;;;5072384;28;20634;-80
2023/07/29 07:21:22;;;;;;;18.42;16.45;;;20.40;99.90;;;;;;5078197;28;20228;-82
2023/07/29 07:23:51;;;;;;;20.15;16.80;;;20.40;99.90;;;;;;5059699;28;20220;-80
2023/07/29 07:26:18;;;;;;;19.52;17.42;;;20.40;99.90;;;;;;5062623;28;20224;-78
2023/07/29 07:28:45;;;;;;;19.38;17.17;;;20.30;99.90;;;;;;5068652;28;20226;-81
2023/07/29 07:31:11;;;;;;;18.38;16.40;;;20.20;99.90;;;;;;5065403;28;20247;-81
2023/07/29 07:33:38;;;;;;;19.67;16.48;;;20.20;99.90;;;;;;5070591;28;20674;-80
2023/07/29 07:36:05;;;;;;;19.27;17.25;;;20.10;99.90;;;;;;5063630;28;20592;-81
2023/07/29 07:38:32;;;;;;;20.35;17.73;;;20.00;99.90;;;;;;5072859;28;20219;-81
2023/07/29 07:41:00;;;;;;;19.83;17.73;;;19.90;99.90;;;;;;5074296;28;20232;-81
2023/07/29 07:43:26;;;;;;;21.58;17.80;;;19.90;99.90;;;;;;5074631;28;20231;-80
2023/07/29 07:45:59;;;;;;;20.10;17.90;;;19.80;99.90;;;;;;5070861;28;20246;-82
2023/07/29 07:48:26;;;;;;;18.90;17.00;;;19.90;99.90;;;;;;5071746;28;20216;-80
2023/07/29 07:50:52;;;;;;;19.90;17.88;;;19.90;99.90;;;;;;5062393;28;20228;-83
2023/07/29 07:53:20;;;;;;;19.75;17.60;;;20.00;99.90;;;;;;5048863;28;20312;-82
2023/07/29 07:55:46;;;;;;;18.35;16.48;;;20.00;99.90;;;;;;5062864;28;20222;-83
2023/07/29 07:58:14;;;;;;;18.67;16.73;;;20.10;99.90;;;;;;5088966;28;20326;-82
2023/07/29 08:00:41;;;;;;;17.90;16.00;;;20.20;99.90;;;;;;5088800;28;20230;-82
2023/07/29 08:03:08;;;;;;;16.17;14.57;;;20.20;99.90;;;;;;5090274;28;20288;-83
2023/07/29 08:05:34;;;;;;;15.15;13.65;;;20.20;99.90;;;;;;5090031;28;20237;-82
2023/07/29 08:08:01;;;;;;;15.88;13.15;;;20.30;99.90;;;;;;5091684;28;20241;-82
2023/07/29 08:10:28;;;;;;;14.68;12.02;;;20.40;99.90;;;;;;5089668;28;20226;-81
2023/07/29 08:12:55;;;;;;;14.30;12.02;;;20.40;99.90;;;;;;5089973;28;20295;-82
2023/07/29 08:15:23;;;;;;;13.40;12.00;;;20.50;99.90;;;;;;5092091;28;20229;-81
2023/07/29 08:17:49;;;;;;;13.32;12.02;;;20.50;99.90;;;;;;5090135;28;20227;-82
2023/07/29 08:20:16;;;;;;;13.15;11.82;;;20.50;99.90;;;;;;5090214;28;20315;-81
2023/07/29 08:22:43;;;;;;;12.90;11.02;;;20.60;99.90;;;;;;5091884;28;20223;-82
2023/07/29 08:25:10;;;;;;;10.95;9.68;;;20.60;99.90;;;;;;5089408;28;20227;-83
2023/07/29 08:27:36;;;;;;;10.90;9.65;;;20.70;99.90;;;;;;5089344;28;20309;-82
2023/07/29 08:30:03;;;;;;;10.93;9.55;;;20.80;99.90;;;;;;5105543;28;20233;-81
2023/07/29 08:32:31;;;;;;;10.50;9.35;;;20.80;99.90;;;;;;5088386;28;20229;-82
2023/07/29 08:34:58;;;;;;;10.27;9.05;;;20.80;99.90;;;;;;5089981;28;20245;-82
2023/07/29 08:37:26;;;;;;;9.02;8.23;;;20.80;99.90;;;;;;5107334;28;20408;-81
2023/07/29 08:39:53;;;;;;;10.40;9.30;;;20.80;99.90;;;;;;5086964;28;20246;-80
2023/07/29 08:42:21;;;;;;;9.00;8.10;;;20.80;99.90;;;;;;5070886;28;20306;-82
2023/07/29 08:44:50;;;;;;;10.63;8.50;;;20.80;99.90;;;;;;5067955;28;20797;-83
2023/07/29 08:47:17;;;;;;;9.70;8.35;;;20.90;99.90;;;;;;5065237;28;20235;-82
2023/07/29 08:49:47;;;;;;;9.52;8.63;;;20.80;99.90;;;;;;5053629;28;20227;-81
2023/07/29 08:52:15;;;;;;;9.00;8.20;;;20.80;99.90;;;;;;5068100;28;20314;-82
2023/07/29 08:54:42;;;;;;;11.85;8.73;;;20.80;99.90;;;;;;5070529;28;20227;-82
2023/07/29 08:57:09;;;;;;;8.77;7.97;;;20.90;99.90;;;;;;5083107;28;20239;-82
2023/07/29 08:59:36;;;;;;;9.73;8.70;;;20.90;99.90;;;;;;5067416;28;20310;-82
2023/07/29 09:02:02;;;;;;;8.90;7.90;;;21.00;99.90;;;;;;5084071;28;20231;-81
2023/07/29 09:04:29;;;;;;;9.30;8.40;;;21.10;99.90;;;;;;5068216;28;20227;-82
2023/07/29 09:06:58;;;;;;;9.10;8.30;;;21.20;99.90;;;;;;5084350;28;20238;-82
2023/07/29 09:09:26;;;;;;;9.23;8.20;;;21.30;99.90;;;;;;5055605;28;20247;-80
2023/07/29 09:11:53;;;;;;;7.80;7.10;;;21.50;99.90;;;;;;5046434;28;20228;-83
2023/07/29 09:14:20;;;;;;;8.27;7.38;;;21.60;99.90;;;;;;5046478;28;20224;-82
2023/07/29 09:16:47;;;;;;;8.75;7.72;;;21.80;99.90;;;;;;5045704;28;20224;-81
2023/07/29 09:19:14;;;;;;;9.10;8.20;;;21.90;99.90;;;;;;5049127;28;20239;-82
2023/07/29 09:21:41;;;;;;;9.65;8.43;;;22.00;99.90;;;;;;5067849;28;20224;-82
2023/07/29 09:24:10;;;;;;;10.68;9.13;;;22.10;99.90;;;;;;5057447;28;20709;-82
2023/07/29 09:26:36;;;;;;;9.10;8.23;;;22.30;99.90;;;;;;5051593;28;20227;-83
2023/07/29 09:29:03;;;;;;;8.82;7.93;;;22.40;99.90;;;;;;5066689;28;20966;-81
2023/07/29 09:31:31;;;;;;;9.65;8.27;;;22.60;99.90;;;;;;5066435;28;20269;-82
2023/07/29 09:33:59;;;;;;;8.73;7.82;;;22.80;99.90;;;;;;5058829;28;20586;-81
2023/07/29 09:36:26;;;;;;;9.60;8.65;;;23.00;99.90;;;;;;5048901;28;20248;-82
2023/07/29 09:38:56;;;;;;;9.25;8.35;;;23.20;99.90;;;;;;5066492;28;20227;-80
2023/07/29 09:41:28;;;;;;;9.10;8.15;;;23.40;99.90;;;;;;5072259;28;20234;-79
2023/07/29 09:43:59;;;;;;;7.45;6.70;;;23.60;99.90;;;;;;5069892;28;20231;-80
2023/07/29 09:46:26;;;;;;;8.68;7.30;;;24.00;99.90;;;;;;5070309;28;20730;-79
2023/07/29 09:48:55;;;;;;;7.55;6.85;;;24.30;99.90;;;;;;5069563;28;20710;-80
2023/07/29 09:51:22;;;;;;;8.00;7.20;;;24.60;99.90;;;;;;5070904;28;20268;-79
2023/07/29 09:53:52;;;;;;;8.10;6.53;;;24.90;99.90;;;;;;5071079;28;20219;-79
2023/07/29 09:56:24;;;;;;;7.13;6.47;;;25.10;99.90;;;;;;5068083;28;20314;-79
2023/07/29 09:58:52;;;;;;;6.88;5.68;;;25.40;99.90;;;;;;5070542;28;20222;-80
2023/07/29 10:01:19;;;;;;;7.20;5.32;;;25.60;99.90;;;;;;5070405;28;20719;-79
2023/07/29 10:03:46;;;;;;;7.28;6.60;;;25.70;99.90;;;;;;5072320;28;20272;-80
2023/07/29 10:06:15;;;;;;;7.57;6.43;;;25.80;99.90;;;;;;5072267;28;20776;-80
2023/07/29 10:08:43;;;;;;;7.97;6.78;;;25.90;99.90;;;;;;5072495;28;20231;-80
2023/07/29 10:11:11;;;;;;;6.50;5.90;;;26.00;99.90;;;;;;5069176;28;20228;-78
2023/07/29 10:13:38;;;;;;;6.63;5.50;;;26.00;99.90;;;;;;5071814;28;20233;-80
2023/07/29 10:16:06;;;;;;;7.50;5.43;;;26.20;99.90;;;;;;5072001;28;20233;-80
2023/07/29 10:18:34;;;;;;;6.22;5.63;;;26.40;99.90;;;;;;5071113;28;20917;-80
2023/07/29 10:21:02;;;;;;;6.10;5.50;;;26.60;99.90;;;;;;5054281;28;20219;-80
2023/07/29 10:23:43;;;;;;;5.80;5.15;;;26.90;99.90;;;;;;5049435;28;20323;-79
2023/07/29 10:26:11;;;;;;;6.10;5.50;;;27.20;99.90;;;;;;5048846;28;20231;-79
2023/07/29 10:28:41;;;;;;;5.80;4.25;;;27.50;99.90;;;;;;5049801;28;20228;-79
2023/07/29 10:31:10;;;;;;;4.38;3.97;;;27.80;99.90;;;;;;5050717;28;20239;-79
2023/07/29 10:33:38;;;;;;;6.20;3.65;;;27.90;99.90;;;;;;5050525;28;20224;-79
2023/07/29 10:36:05;;;;;;;4.13;3.40;;;28.10;99.90;;;;;;5050934;28;20323;-79
2023/07/29 10:38:32;;;;;;;3.85;3.42;;;28.20;99.90;;;;;;5056636;28;20219;-80
2023/07/29 10:41:00;;;;;;;3.80;3.50;;;28.40;99.90;;;;;;5061038;28;20245;-81
2023/07/29 10:43:30;;;;;;;4.50;2.95;;;28.40;99.60;;;;;;5060943;28;20255;-82
2023/07/29 10:45:57;;;;;;;3.40;3.10;;;28.40;99.80;;;;;;5060003;28;20227;-81
2023/07/29 10:48:45;;;;;;;3.15;2.85;;;28.20;99.10;;;;;;5060874;28;20944;-81
2023/07/29 10:51:26;;;;;;;3.63;2.67;;;28.00;98.00;;;;;;5059867;28;20310;-81
2023/07/29 10:53:53;;;;;;;3.42;2.83;;;27.80;98.50;;;;;;5060001;28;20961;-81
2023/07/29 10:56:27;;;;;;;3.00;2.63;;;27.60;99.90;;;;;;5075378;28;20231;-81
2023/07/29 10:58:56;;;;;;;2.50;2.30;;;27.50;99.60;;;;;;5056863;28;20222;-81
2023/07/29 11:01:28;;;;;;;2.90;2.60;;;27.40;99.60;;;;;;5056682;28;20221;-81
2023/07/29 11:04:27;;;;;;;2.90;2.60;;;27.50;99.60;;;;;;5066889;28;20633;-82
2023/07/29 11:07:27;;;;;;;3.80;2.42;;;27.60;99.00;;;;;;5059967;28;20276;-81
2023/07/29 11:09:57;;;;;;;3.33;2.35;;;27.80;99.20;;;;;;5065027;28;20228;-81
2023/07/29 11:12:42;;;;;;;2.47;2.28;;;27.80;98.50;;;;;;5064015;28;20230;-81
2023/07/29 11:15:18;;;;;;;3.03;2.10;;;27.70;98.20;;;;;;5065405;28;20284;-82
2023/07/29 11:17:47;;;;;;;2.50;2.30;;;27.50;98.10;;;;;;5060064;28;20251;-81
2023/07/29 11:20:17;;;;;;;2.63;2.42;;;27.40;98.90;;;;;;5060716;28;20231;-81
2023/07/29 11:22:43;;;;;;;2.70;2.50;;;27.20;98.70;;;;;;5066428;28;20285;-82
2023/07/29 11:25:12;;;;;;;2.60;2.15;;;27.10;98.90;;;;;;5064051;28;20908;-82
2023/07/29 11:27:38;;;;;;;2.92;2.55;;;27.00;99.20;;;;;;5062072;28;20234;-83
2023/07/29 11:30:07;;;;;;;3.97;2.28;;;26.90;99.60;;;;;;5064754;28;20219;-84
2023/07/29 11:32:35;;;;;;;2.10;1.90;;;27.00;98.70;;;;;;5061293;28;20303;-82
2023/07/29 11:35:07;;;;;;;3.10;2.33;;;26.90;99.60;;;;;;5065366;28;20234;-81
2023/07/29 11:37:35;;;;;;;3.00;2.70;;;26.90;98.20;;;;;;5058651;28;20228;-81
2023/07/29 11:40:03;;;;;;;2.33;2.13;;;27.00;98.40;;;;;;5059819;28;20223;-81
2023/07/29 11:42:32;;;;;;;3.42;2.70;;;26.90;98.80;;;;;;5065703;28;20223;-83
2023/07/29 11:44:59;;;;;;;2.50;2.30;;;26.90;98.70;;;;;;5066198;28;20222;-82
2023/07/29 11:47:27;;;;;;;2.92;2.38;;;26.80;98.70;;;;;;5054748;28;20227;-82
2023/07/29 11:49:54;;;;;;;1.95;1.80;;;26.70;98.70;;;;;;5065724;28;20220;-82
2023/07/29 11:52:21;;;;;;;3.92;2.17;;;26.60;98.80;;;;;;5061047;28;20215;-82
2023/07/29 11:54:50;;;;;;;3.03;2.22;;;26.40;98.70;;;;;;5066572;28;20223;-83
2023/07/29 11:57:18;;;;;;;3.72;2.50;;;26.20;98.90;;;;;;5078624;28;20618;-80
2023/07/29 11:59:45;;;;;;;4.97;2.35;;;26.10;99.90;;;;;;5058114;28;20224;-82
2023/07/29 12:02:13;;;;;;;3.22;2.10;;;26.00;99.90;;;;;;5056995;28;20230;-81
2023/07/29 12:04:41;;;;;;;4.40;2.35;;;26.00;99.90;;;;;;5063553;28;20741;-82
2023/07/29 12:07:09;;;;;;;4.75;2.90;;;26.10;99.90;;;;;;5061547;28;20251;-83
2023/07/29 12:09:36;;;;;;;2.78;1.98;;;26.20;99.90;;;;;;5067930;28;20224;-82
2023/07/29 12:12:04;;;;;;;3.65;2.35;;;26.50;99.90;;;;;;5067361;28;20235;-85
2023/07/29 12:14:31;;;;;;;3.35;2.20;;;26.80;99.90;;;;;;5069211;28;20219;-81
2023/07/29 12:17:01;;;;;;;3.22;2.92;;;27.10;99.90;;;;;;5068079;28;20338;-81
2023/07/29 12:19:34;;;;;;;2.80;2.58;;;27.50;98.90;;;;;;5063098;28;20307;-82
2023/07/29 12:22:00;;;;;;;2.72;2.50;;;27.80;97.60;;;;;;5060006;28;20227;-83
2023/07/29 12:24:27;;;;;;;3.13;2.83;;;28.00;97.30;;;;;;5065077;28;20588;-81
2023/07/29 12:26:54;;;;;;;3.08;2.78;;;28.20;96.70;;;;;;5067012;28;20227;-80
2023/07/29 12:29:23;;;;;;;3.38;2.60;;;28.30;96.00;;;;;;5070305;28;20221;-82
2023/07/29 12:31:50;;;;;;;2.55;2.25;;;28.40;95.60;;;;;;5066241;28;20243;-81
2023/07/29 12:34:19;;;;;;;2.45;2.25;;;28.40;96.30;;;;;;5069666;28;20233;-81
2023/07/29 12:36:48;;;;;;;3.13;2.83;;;28.50;95.40;;;;;;5057801;28;20260;-83
2023/07/29 12:39:19;;;;;;;2.45;2.17;;;28.60;95.40;;;;;;5061645;28;20228;-81
2023/07/29 12:41:46;;;;;;;2.47;2.03;;;28.70;93.90;;;;;;5066651;28;20975;-81